Aviation Digital Data Service (ADDS)

Output produced by METARs form (0907 UTC 29 March 2017)
found at http://aviationweather.gov/adds/metars/
 
KCAR 290701Z 2907/3006 VRB03KT 2SM BR BKN004 OVC015 
     FM291300 35006KT 5SM BR OVC010 
     FM291800 34006KT P6SM OVC025